sensor_id;sensor_type;location;lat;lon;timestamp;P1;durP1;ratioP1;P2;durP2;ratioP2
9997;SDS011;5038;53.064;8.624;2023-11-19T00:01:18;14.20;;;13.00;;
9997;SDS011;5038;53.064;8.624;2023-11-19T00:03:47;15.27;;;13.77;;
9997;SDS011;5038;53.064;8.624;2023-11-19T00:06:17;14.43;;;13.13;;
9997;SDS011;5038;53.064;8.624;2023-11-19T00:08:45;13.50;;;12.30;;
9997;SDS011;5038;53.064;8.624;2023-11-19T00:11:20;16.13;;;14.60;;
9997;SDS011;5038;53.064;8.624;2023-11-19T00:14:06;15.87;;;14.43;;
9997;SDS011;5038;53.064;8.624;2023-11-19T00:16:45;16.70;;;15.10;;
9997;SDS011;5038;53.064;8.624;2023-11-19T00:19:13;18.00;;;16.20;;
9997;SDS011;5038;53.064;8.624;2023-11-19T00:21:43;18.33;;;16.53;;
9997;SDS011;5038;53.064;8.624;2023-11-19T00:24:12;18.53;;;16.73;;
9997;SDS011;5038;53.064;8.624;2023-11-19T00:26:44;18.63;;;16.83;;
9997;SDS011;5038;53.064;8.624;2023-11-19T00:29:13;19.07;;;17.17;;
9997;SDS011;5038;53.064;8.624;2023-11-19T00:31:41;18.80;;;16.90;;
9997;SDS011;5038;53.064;8.624;2023-11-19T00:34:10;19.63;;;17.70;;
9997;SDS011;5038;53.064;8.624;2023-11-19T00:36:38;20.13;;;18.13;;
9997;SDS011;5038;53.064;8.624;2023-11-19T00:39:07;19.90;;;17.90;;
9997;SDS011;5038;53.064;8.624;2023-11-19T00:41:35;21.57;;;19.47;;
9997;SDS011;5038;53.064;8.624;2023-11-19T00:44:05;22.50;;;20.20;;
9997;SDS011;5038;53.064;8.624;2023-11-19T00:46:33;23.60;;;21.30;;
9997;SDS011;5038;53.064;8.624;2023-11-19T00:49:02;23.10;;;20.33;;
9997;SDS011;5038;53.064;8.624;2023-11-19T00:51:33;23.63;;;21.30;;
9997;SDS011;5038;53.064;8.624;2023-11-19T00:54:06;22.37;;;20.17;;
9997;SDS011;5038;53.064;8.624;2023-11-19T00:56:43;22.63;;;20.43;;
9997;SDS011;5038;53.064;8.624;2023-11-19T00:59:13;23.57;;;20.93;;
9997;SDS011;5038;53.064;8.624;2023-11-19T01:01:42;24.63;;;22.20;;
9997;SDS011;5038;53.064;8.624;2023-11-19T01:04:10;25.03;;;22.33;;
9997;SDS011;5038;53.064;8.624;2023-11-19T01:06:38;28.60;;;22.83;;
9997;SDS011;5038;53.064;8.624;2023-11-19T01:09:11;22.80;;;20.40;;
9997;SDS011;5038;53.064;8.624;2023-11-19T01:11:39;23.53;;;21.03;;
9997;SDS011;5038;53.064;8.624;2023-11-19T01:14:07;23.20;;;20.80;;
9997;SDS011;5038;53.064;8.624;2023-11-19T01:16:37;25.00;;;22.40;;
9997;SDS011;5038;53.064;8.624;2023-11-19T01:19:06;24.90;;;21.80;;
9997;SDS011;5038;53.064;8.624;2023-11-19T01:21:43;25.07;;;21.70;;
9997;SDS011;5038;53.064;8.624;2023-11-19T01:24:12;25.50;;;22.70;;
9997;SDS011;5038;53.064;8.624;2023-11-19T01:26:41;26.17;;;22.17;;
9997;SDS011;5038;53.064;8.624;2023-11-19T01:29:12;25.37;;;22.10;;
9997;SDS011;5038;53.064;8.624;2023-11-19T01:31:42;27.67;;;23.73;;
9997;SDS011;5038;53.064;8.624;2023-11-19T01:34:13;29.70;;;24.40;;
9997;SDS011;5038;53.064;8.624;2023-11-19T01:36:42;27.90;;;22.20;;
9997;SDS011;5038;53.064;8.624;2023-11-19T01:39:30;26.40;;;22.83;;
9997;SDS011;5038;53.064;8.624;2023-11-19T01:41:59;30.27;;;22.63;;
9997;SDS011;5038;53.064;8.624;2023-11-19T01:44:27;27.87;;;22.23;;
9997;SDS011;5038;53.064;8.624;2023-11-19T01:46:57;27.47;;;22.77;;
9997;SDS011;5038;53.064;8.624;2023-11-19T01:49:25;26.10;;;21.30;;
9997;SDS011;5038;53.064;8.624;2023-11-19T01:51:55;28.73;;;22.47;;
9997;SDS011;5038;53.064;8.624;2023-11-19T01:54:25;28.00;;;22.37;;
9997;SDS011;5038;53.064;8.624;2023-11-19T01:56:55;30.90;;;24.63;;
9997;SDS011;5038;53.064;8.624;2023-11-19T01:59:24;31.30;;;23.90;;
9997;SDS011;5038;53.064;8.624;2023-11-19T02:01:54;29.83;;;24.00;;
9997;SDS011;5038;53.064;8.624;2023-11-19T02:04:27;30.03;;;22.80;;
9997;SDS011;5038;53.064;8.624;2023-11-19T02:06:56;30.50;;;24.80;;
9997;SDS011;5038;53.064;8.624;2023-11-19T02:09:27;29.80;;;24.43;;
9997;SDS011;5038;53.064;8.624;2023-11-19T02:11:56;30.03;;;22.33;;
9997;SDS011;5038;53.064;8.624;2023-11-19T02:14:25;32.03;;;25.03;;
9997;SDS011;5038;53.064;8.624;2023-11-19T02:16:55;30.47;;;23.77;;
9997;SDS011;5038;53.064;8.624;2023-11-19T02:19:25;33.27;;;23.97;;
9997;SDS011;5038;53.064;8.624;2023-11-19T02:25:40;35.33;;;27.13;;
9997;SDS011;5038;53.064;8.624;2023-11-19T02:28:10;37.17;;;27.10;;
9997;SDS011;5038;53.064;8.624;2023-11-19T02:30:39;36.27;;;27.90;;
9997;SDS011;5038;53.064;8.624;2023-11-19T02:33:07;41.07;;;29.17;;
9997;SDS011;5038;53.064;8.624;2023-11-19T02:35:38;38.37;;;29.43;;
9997;SDS011;5038;53.064;8.624;2023-11-19T02:38:07;39.23;;;27.70;;
9997;SDS011;5038;53.064;8.624;2023-11-19T02:40:36;47.60;;;31.17;;
9997;SDS011;5038;53.064;8.624;2023-11-19T02:43:07;41.93;;;30.80;;
9997;SDS011;5038;53.064;8.624;2023-11-19T02:45:37;45.37;;;30.83;;
9997;SDS011;5038;53.064;8.624;2023-11-19T02:48:07;39.13;;;28.00;;
9997;SDS011;5038;53.064;8.624;2023-11-19T02:50:36;40.13;;;29.30;;
9997;SDS011;5038;53.064;8.624;2023-11-19T02:53:04;41.33;;;28.73;;
9997;SDS011;5038;53.064;8.624;2023-11-19T02:55:33;42.23;;;29.27;;
9997;SDS011;5038;53.064;8.624;2023-11-19T02:58:05;42.47;;;28.50;;
9997;SDS011;5038;53.064;8.624;2023-11-19T03:00:47;40.50;;;29.27;;
9997;SDS011;5038;53.064;8.624;2023-11-19T03:03:24;38.03;;;28.30;;
9997;SDS011;5038;53.064;8.624;2023-11-19T03:05:55;40.80;;;27.97;;
9997;SDS011;5038;53.064;8.624;2023-11-19T03:08:46;44.23;;;29.00;;
9997;SDS011;5038;53.064;8.624;2023-11-19T03:11:23;40.50;;;27.23;;
9997;SDS011;5038;53.064;8.624;2023-11-19T03:13:53;37.20;;;28.30;;
9997;SDS011;5038;53.064;8.624;2023-11-19T03:16:23;44.23;;;29.90;;
9997;SDS011;5038;53.064;8.624;2023-11-19T03:18:51;38.90;;;29.17;;
9997;SDS011;5038;53.064;8.624;2023-11-19T03:21:24;39.93;;;27.97;;
9997;SDS011;5038;53.064;8.624;2023-11-19T03:23:56;41.63;;;28.67;;
9997;SDS011;5038;53.064;8.624;2023-11-19T03:26:26;41.03;;;27.63;;
9997;SDS011;5038;53.064;8.624;2023-11-19T03:28:55;45.70;;;29.40;;
9997;SDS011;5038;53.064;8.624;2023-11-19T03:31:25;44.67;;;28.20;;
9997;SDS011;5038;53.064;8.624;2023-11-19T03:33:53;41.67;;;28.50;;
9997;SDS011;5038;53.064;8.624;2023-11-19T03:36:25;39.13;;;27.20;;
9997;SDS011;5038;53.064;8.624;2023-11-19T03:38:59;39.13;;;27.00;;
9997;SDS011;5038;53.064;8.624;2023-11-19T03:41:28;40.10;;;27.30;;
9997;SDS011;5038;53.064;8.624;2023-11-19T03:44:07;48.77;;;28.00;;
9997;SDS011;5038;53.064;8.624;2023-11-19T03:46:37;40.03;;;26.10;;
9997;SDS011;5038;53.064;8.624;2023-11-19T03:49:05;40.60;;;26.23;;
9997;SDS011;5038;53.064;8.624;2023-11-19T03:51:34;41.10;;;26.60;;
9997;SDS011;5038;53.064;8.624;2023-11-19T03:54:03;40.73;;;27.00;;
9997;SDS011;5038;53.064;8.624;2023-11-19T03:56:32;40.50;;;27.20;;
9997;SDS011;5038;53.064;8.624;2023-11-19T03:59:01;39.20;;;25.20;;
9997;SDS011;5038;53.064;8.624;2023-11-19T04:01:29;42.83;;;27.10;;
9997;SDS011;5038;53.064;8.624;2023-11-19T04:03:59;41.67;;;27.50;;
9997;SDS011;5038;53.064;8.624;2023-11-19T04:06:28;44.87;;;28.70;;
9997;SDS011;5038;53.064;8.624;2023-11-19T04:08:56;43.93;;;29.20;;
9997;SDS011;5038;53.064;8.624;2023-11-19T04:11:24;40.47;;;29.23;;
9997;SDS011;5038;53.064;8.624;2023-11-19T04:13:53;43.20;;;29.43;;
9997;SDS011;5038;53.064;8.624;2023-11-19T04:16:25;40.17;;;26.33;;
9997;SDS011;5038;53.064;8.624;2023-11-19T04:18:55;41.03;;;27.30;;
9997;SDS011;5038;53.064;8.624;2023-11-19T04:21:26;40.57;;;26.03;;
9997;SDS011;5038;53.064;8.624;2023-11-19T04:23:54;42.73;;;25.00;;
9997;SDS011;5038;53.064;8.624;2023-11-19T04:26:22;38.83;;;23.93;;
9997;SDS011;5038;53.064;8.624;2023-11-19T04:28:51;45.47;;;26.70;;
9997;SDS011;5038;53.064;8.624;2023-11-19T04:31:19;47.57;;;26.70;;
9997;SDS011;5038;53.064;8.624;2023-11-19T04:33:47;43.63;;;27.03;;
9997;SDS011;5038;53.064;8.624;2023-11-19T04:36:18;46.00;;;28.60;;
9997;SDS011;5038;53.064;8.624;2023-11-19T04:38:48;38.70;;;25.93;;
9997;SDS011;5038;53.064;8.624;2023-11-19T04:41:17;44.33;;;25.87;;
9997;SDS011;5038;53.064;8.624;2023-11-19T04:43:45;39.50;;;25.90;;
9997;SDS011;5038;53.064;8.624;2023-11-19T04:46:13;36.17;;;25.90;;
9997;SDS011;5038;53.064;8.624;2023-11-19T04:48:42;48.40;;;25.17;;
9997;SDS011;5038;53.064;8.624;2023-11-19T04:51:10;35.67;;;24.40;;
9997;SDS011;5038;53.064;8.624;2023-11-19T04:53:38;38.60;;;23.87;;
9997;SDS011;5038;53.064;8.624;2023-11-19T04:56:09;38.37;;;24.33;;
9997;SDS011;5038;53.064;8.624;2023-11-19T04:58:37;33.33;;;22.90;;
9997;SDS011;5038;53.064;8.624;2023-11-19T05:01:06;37.10;;;24.20;;
9997;SDS011;5038;53.064;8.624;2023-11-19T05:03:40;44.37;;;24.83;;
9997;SDS011;5038;53.064;8.624;2023-11-19T05:06:09;33.30;;;21.97;;
9997;SDS011;5038;53.064;8.624;2023-11-19T05:08:37;38.53;;;23.40;;
9997;SDS011;5038;53.064;8.624;2023-11-19T05:11:05;37.00;;;22.67;;
9997;SDS011;5038;53.064;8.624;2023-11-19T05:13:35;37.37;;;22.27;;
9997;SDS011;5038;53.064;8.624;2023-11-19T05:16:04;31.20;;;21.10;;
9997;SDS011;5038;53.064;8.624;2023-11-19T05:18:33;35.67;;;21.70;;
9997;SDS011;5038;53.064;8.624;2023-11-19T05:21:01;33.30;;;20.53;;
9997;SDS011;5038;53.064;8.624;2023-11-19T05:23:29;37.50;;;22.03;;
9997;SDS011;5038;53.064;8.624;2023-11-19T05:25:57;33.60;;;19.80;;
9997;SDS011;5038;53.064;8.624;2023-11-19T05:28:26;34.27;;;18.93;;
9997;SDS011;5038;53.064;8.624;2023-11-19T05:30:56;34.47;;;17.57;;
9997;SDS011;5038;53.064;8.624;2023-11-19T05:33:24;28.63;;;16.33;;
9997;SDS011;5038;53.064;8.624;2023-11-19T05:35:53;36.00;;;18.43;;
9997;SDS011;5038;53.064;8.624;2023-11-19T05:38:21;29.23;;;16.93;;
9997;SDS011;5038;53.064;8.624;2023-11-19T05:40:49;37.23;;;17.00;;
9997;SDS011;5038;53.064;8.624;2023-11-19T05:43:18;29.83;;;16.67;;
9997;SDS011;5038;53.064;8.624;2023-11-19T05:45:46;32.17;;;17.30;;
9997;SDS011;5038;53.064;8.624;2023-11-19T05:48:16;31.60;;;16.53;;
9997;SDS011;5038;53.064;8.624;2023-11-19T05:50:44;33.53;;;16.60;;
9997;SDS011;5038;53.064;8.624;2023-11-19T05:53:13;31.57;;;15.50;;
9997;SDS011;5038;53.064;8.624;2023-11-19T05:55:42;24.17;;;14.07;;
9997;SDS011;5038;53.064;8.624;2023-11-19T05:58:23;25.37;;;14.63;;
9997;SDS011;5038;53.064;8.624;2023-11-19T06:00:55;32.80;;;14.60;;
9997;SDS011;5038;53.064;8.624;2023-11-19T06:03:25;26.37;;;13.93;;
9997;SDS011;5038;53.064;8.624;2023-11-19T06:05:53;31.13;;;13.60;;
9997;SDS011;5038;53.064;8.624;2023-11-19T06:08:21;22.20;;;12.97;;
9997;SDS011;5038;53.064;8.624;2023-11-19T06:10:50;30.93;;;13.93;;
9997;SDS011;5038;53.064;8.624;2023-11-19T06:13:18;37.87;;;13.60;;
9997;SDS011;5038;53.064;8.624;2023-11-19T06:15:50;33.93;;;14.37;;
9997;SDS011;5038;53.064;8.624;2023-11-19T06:18:18;22.50;;;12.13;;
9997;SDS011;5038;53.064;8.624;2023-11-19T06:20:49;28.47;;;12.17;;
9997;SDS011;5038;53.064;8.624;2023-11-19T06:23:17;35.47;;;12.40;;
9997;SDS011;5038;53.064;8.624;2023-11-19T06:25:46;22.53;;;10.47;;
9997;SDS011;5038;53.064;8.624;2023-11-19T06:28:14;23.73;;;11.37;;
9997;SDS011;5038;53.064;8.624;2023-11-19T06:30:42;27.67;;;10.77;;
9997;SDS011;5038;53.064;8.624;2023-11-19T06:33:14;29.80;;;10.70;;
9997;SDS011;5038;53.064;8.624;2023-11-19T06:35:43;28.60;;;10.20;;
9997;SDS011;5038;53.064;8.624;2023-11-19T06:38:12;29.83;;;10.17;;
9997;SDS011;5038;53.064;8.624;2023-11-19T06:40:41;32.10;;;9.37;;
9997;SDS011;5038;53.064;8.624;2023-11-19T06:43:09;27.63;;;9.70;;
9997;SDS011;5038;53.064;8.624;2023-11-19T06:45:37;23.40;;;8.70;;
9997;SDS011;5038;53.064;8.624;2023-11-19T06:48:06;23.40;;;8.97;;
9997;SDS011;5038;53.064;8.624;2023-11-19T06:50:34;25.80;;;7.83;;
9997;SDS011;5038;53.064;8.624;2023-11-19T06:53:02;28.93;;;9.50;;
9997;SDS011;5038;53.064;8.624;2023-11-19T06:55:34;27.53;;;9.47;;
9997;SDS011;5038;53.064;8.624;2023-11-19T06:58:02;27.40;;;9.00;;
9997;SDS011;5038;53.064;8.624;2023-11-19T07:00:30;33.13;;;10.07;;
9997;SDS011;5038;53.064;8.624;2023-11-19T07:02:59;31.47;;;10.13;;
9997;SDS011;5038;53.064;8.624;2023-11-19T07:05:27;26.87;;;8.97;;
9997;SDS011;5038;53.064;8.624;2023-11-19T07:07:57;26.17;;;9.53;;
9997;SDS011;5038;53.064;8.624;2023-11-19T07:10:25;25.87;;;7.80;;
9997;SDS011;5038;53.064;8.624;2023-11-19T07:12:54;32.80;;;8.83;;
9997;SDS011;5038;53.064;8.624;2023-11-19T07:15:24;21.37;;;7.07;;
9997;SDS011;5038;53.064;8.624;2023-11-19T07:17:52;30.20;;;9.30;;
9997;SDS011;5038;53.064;8.624;2023-11-19T07:20:24;27.43;;;8.47;;
9997;SDS011;5038;53.064;8.624;2023-11-19T07:22:53;27.70;;;8.47;;
9997;SDS011;5038;53.064;8.624;2023-11-19T07:25:24;30.10;;;8.70;;
9997;SDS011;5038;53.064;8.624;2023-11-19T07:27:54;27.20;;;8.90;;
9997;SDS011;5038;53.064;8.624;2023-11-19T07:30:23;24.10;;;8.23;;
9997;SDS011;5038;53.064;8.624;2023-11-19T07:32:51;24.47;;;8.37;;
9997;SDS011;5038;53.064;8.624;2023-11-19T07:35:19;21.23;;;8.40;;
9997;SDS011;5038;53.064;8.624;2023-11-19T07:37:48;22.77;;;8.30;;
9997;SDS011;5038;53.064;8.624;2023-11-19T07:40:17;22.33;;;7.20;;
9997;SDS011;5038;53.064;8.624;2023-11-19T07:42:46;23.57;;;7.93;;
9997;SDS011;5038;53.064;8.624;2023-11-19T07:45:16;22.33;;;6.93;;
9997;SDS011;5038;53.064;8.624;2023-11-19T07:47:44;27.60;;;7.20;;
9997;SDS011;5038;53.064;8.624;2023-11-19T07:50:12;30.03;;;9.57;;
9997;SDS011;5038;53.064;8.624;2023-11-19T07:52:43;31.30;;;8.70;;
9997;SDS011;5038;53.064;8.624;2023-11-19T07:55:11;25.27;;;8.43;;
9997;SDS011;5038;53.064;8.624;2023-11-19T07:57:40;26.70;;;7.50;;
9997;SDS011;5038;53.064;8.624;2023-11-19T08:00:08;29.30;;;10.23;;
9997;SDS011;5038;53.064;8.624;2023-11-19T08:02:40;21.57;;;8.60;;
9997;SDS011;5038;53.064;8.624;2023-11-19T08:05:09;27.90;;;8.67;;
9997;SDS011;5038;53.064;8.624;2023-11-19T08:07:38;27.40;;;7.30;;
9997;SDS011;5038;53.064;8.624;2023-11-19T08:10:06;28.17;;;8.97;;
9997;SDS011;5038;53.064;8.624;2023-11-19T08:12:37;32.00;;;8.70;;
9997;SDS011;5038;53.064;8.624;2023-11-19T08:15:06;23.30;;;7.60;;
9997;SDS011;5038;53.064;8.624;2023-11-19T08:17:34;32.97;;;10.33;;
9997;SDS011;5038;53.064;8.624;2023-11-19T08:20:05;29.37;;;8.63;;
9997;SDS011;5038;53.064;8.624;2023-11-19T08:22:37;25.60;;;8.77;;
9997;SDS011;5038;53.064;8.624;2023-11-19T08:25:05;24.23;;;7.63;;
9997;SDS011;5038;53.064;8.624;2023-11-19T08:27:34;30.70;;;7.83;;
9997;SDS011;5038;53.064;8.624;2023-11-19T08:30:03;25.73;;;8.83;;
9997;SDS011;5038;53.064;8.624;2023-11-19T08:32:32;32.50;;;8.60;;
9997;SDS011;5038;53.064;8.624;2023-11-19T08:35:02;28.53;;;8.57;;
9997;SDS011;5038;53.064;8.624;2023-11-19T08:37:32;24.70;;;8.03;;
9997;SDS011;5038;53.064;8.624;2023-11-19T08:40:00;25.43;;;8.13;;
9997;SDS011;5038;53.064;8.624;2023-11-19T08:42:29;19.97;;;7.20;;
9997;SDS011;5038;53.064;8.624;2023-11-19T08:44:57;21.40;;;7.20;;
9997;SDS011;5038;53.064;8.624;2023-11-19T08:47:25;23.50;;;8.53;;
9997;SDS011;5038;53.064;8.624;2023-11-19T08:49:54;23.93;;;8.13;;
9997;SDS011;5038;53.064;8.624;2023-11-19T08:52:25;24.17;;;7.37;;
9997;SDS011;5038;53.064;8.624;2023-11-19T08:54:55;30.07;;;9.00;;
9997;SDS011;5038;53.064;8.624;2023-11-19T08:57:23;22.60;;;8.07;;
9997;SDS011;5038;53.064;8.624;2023-11-19T08:59:51;21.37;;;8.13;;
9997;SDS011;5038;53.064;8.624;2023-11-19T09:02:20;27.10;;;8.10;;
9997;SDS011;5038;53.064;8.624;2023-11-19T09:04:48;29.50;;;8.40;;
9997;SDS011;5038;53.064;8.624;2023-11-19T09:07:19;20.17;;;6.70;;
9997;SDS011;5038;53.064;8.624;2023-11-19T09:09:48;17.97;;;7.53;;
9997;SDS011;5038;53.064;8.624;2023-11-19T09:12:17;32.40;;;8.43;;
9997;SDS011;5038;53.064;8.624;2023-11-19T09:14:45;28.83;;;9.77;;
9997;SDS011;5038;53.064;8.624;2023-11-19T09:17:14;30.03;;;8.67;;
9997;SDS011;5038;53.064;8.624;2023-11-19T09:19:44;33.40;;;8.97;;
9997;SDS011;5038;53.064;8.624;2023-11-19T09:22:13;24.20;;;6.23;;
9997;SDS011;5038;53.064;8.624;2023-11-19T09:24:41;26.00;;;8.23;;
9997;SDS011;5038;53.064;8.624;2023-11-19T09:27:10;16.70;;;7.10;;
9997;SDS011;5038;53.064;8.624;2023-11-19T09:29:40;24.50;;;7.97;;
9997;SDS011;5038;53.064;8.624;2023-11-19T09:32:09;24.60;;;8.00;;
9997;SDS011;5038;53.064;8.624;2023-11-19T09:34:38;27.33;;;7.30;;
9997;SDS011;5038;53.064;8.624;2023-11-19T09:37:06;27.17;;;7.40;;
9997;SDS011;5038;53.064;8.624;2023-11-19T09:39:38;28.50;;;7.97;;
9997;SDS011;5038;53.064;8.624;2023-11-19T09:42:09;23.07;;;8.50;;
9997;SDS011;5038;53.064;8.624;2023-11-19T09:44:38;31.40;;;9.10;;
9997;SDS011;5038;53.064;8.624;2023-11-19T09:47:11;30.13;;;9.87;;
9997;SDS011;5038;53.064;8.624;2023-11-19T09:49:41;22.83;;;7.70;;
9997;SDS011;5038;53.064;8.624;2023-11-19T09:52:10;31.07;;;8.63;;
9997;SDS011;5038;53.064;8.624;2023-11-19T09:54:39;31.27;;;8.37;;
9997;SDS011;5038;53.064;8.624;2023-11-19T09:57:07;28.87;;;8.63;;
9997;SDS011;5038;53.064;8.624;2023-11-19T09:59:37;28.83;;;7.90;;
9997;SDS011;5038;53.064;8.624;2023-11-19T10:02:08;36.40;;;10.70;;
9997;SDS011;5038;53.064;8.624;2023-11-19T10:04:37;24.57;;;8.23;;
9997;SDS011;5038;53.064;8.624;2023-11-19T10:07:07;27.10;;;8.47;;
9997;SDS011;5038;53.064;8.624;2023-11-19T10:09:35;31.57;;;9.83;;
9997;SDS011;5038;53.064;8.624;2023-11-19T10:12:04;29.27;;;9.53;;
9997;SDS011;5038;53.064;8.624;2023-11-19T10:14:32;24.90;;;8.83;;
9997;SDS011;5038;53.064;8.624;2023-11-19T10:17:07;30.87;;;8.73;;
9997;SDS011;5038;53.064;8.624;2023-11-19T10:19:36;29.87;;;9.47;;
9997;SDS011;5038;53.064;8.624;2023-11-19T10:22:08;22.13;;;7.70;;
9997;SDS011;5038;53.064;8.624;2023-11-19T10:24:36;25.57;;;8.77;;
9997;SDS011;5038;53.064;8.624;2023-11-19T10:27:14;29.23;;;9.27;;
9997;SDS011;5038;53.064;8.624;2023-11-19T10:29:45;25.93;;;9.53;;
9997;SDS011;5038;53.064;8.624;2023-11-19T10:32:16;23.90;;;8.57;;
9997;SDS011;5038;53.064;8.624;2023-11-19T10:34:52;28.87;;;8.33;;
9997;SDS011;5038;53.064;8.624;2023-11-19T10:37:32;30.73;;;7.80;;
9997;SDS011;5038;53.064;8.624;2023-11-19T10:40:04;19.80;;;7.03;;
9997;SDS011;5038;53.064;8.624;2023-11-19T10:42:37;21.93;;;7.73;;
9997;SDS011;5038;53.064;8.624;2023-11-19T10:45:05;22.90;;;7.20;;
9997;SDS011;5038;53.064;8.624;2023-11-19T10:47:52;22.93;;;7.00;;
9997;SDS011;5038;53.064;8.624;2023-11-19T10:50:23;23.30;;;7.13;;
9997;SDS011;5038;53.064;8.624;2023-11-19T10:52:52;21.83;;;6.43;;
9997;SDS011;5038;53.064;8.624;2023-11-19T10:55:26;23.03;;;7.17;;
9997;SDS011;5038;53.064;8.624;2023-11-19T10:57:58;19.70;;;7.80;;
9997;SDS011;5038;53.064;8.624;2023-11-19T11:00:29;20.90;;;6.67;;
9997;SDS011;5038;53.064;8.624;2023-11-19T11:03:01;24.40;;;8.03;;
9997;SDS011;5038;53.064;8.624;2023-11-19T11:05:36;20.60;;;7.87;;
9997;SDS011;5038;53.064;8.624;2023-11-19T11:08:08;24.27;;;7.80;;
9997;SDS011;5038;53.064;8.624;2023-11-19T11:10:39;23.80;;;7.57;;
9997;SDS011;5038;53.064;8.624;2023-11-19T11:13:14;22.97;;;7.63;;
9997;SDS011;5038;53.064;8.624;2023-11-19T11:15:44;25.93;;;7.70;;
9997;SDS011;5038;53.064;8.624;2023-11-19T11:18:16;25.23;;;8.17;;
9997;SDS011;5038;53.064;8.624;2023-11-19T11:20:45;29.90;;;8.10;;
9997;SDS011;5038;53.064;8.624;2023-11-19T11:23:34;20.83;;;7.93;;
9997;SDS011;5038;53.064;8.624;2023-11-19T11:26:29;20.70;;;8.30;;
9997;SDS011;5038;53.064;8.624;2023-11-19T11:29:19;25.67;;;7.40;;
9997;SDS011;5038;53.064;8.624;2023-11-19T11:31:57;25.03;;;8.17;;
9997;SDS011;5038;53.064;8.624;2023-11-19T11:34:42;24.90;;;7.93;;
9997;SDS011;5038;53.064;8.624;2023-11-19T11:37:21;24.00;;;8.63;;
9997;SDS011;5038;53.064;8.624;2023-11-19T11:39:56;20.53;;;8.20;;
9997;SDS011;5038;53.064;8.624;2023-11-19T11:42:33;26.17;;;8.93;;
9997;SDS011;5038;53.064;8.624;2023-11-19T11:45:02;27.03;;;9.03;;
9997;SDS011;5038;53.064;8.624;2023-11-19T11:50:54;17.87;;;7.80;;
9997;SDS011;5038;53.064;8.624;2023-11-19T11:53:24;25.13;;;7.20;;
9997;SDS011;5038;53.064;8.624;2023-11-19T11:55:55;28.50;;;8.97;;
9997;SDS011;5038;53.064;8.624;2023-11-19T11:58:27;25.57;;;8.20;;
9997;SDS011;5038;53.064;8.624;2023-11-19T12:01:01;23.17;;;7.80;;
9997;SDS011;5038;53.064;8.624;2023-11-19T12:03:33;19.83;;;8.53;;
9997;SDS011;5038;53.064;8.624;2023-11-19T12:06:03;22.53;;;7.70;;
9997;SDS011;5038;53.064;8.624;2023-11-19T12:08:32;23.50;;;7.37;;
9997;SDS011;5038;53.064;8.624;2023-11-19T12:11:19;26.70;;;8.10;;
9997;SDS011;5038;53.064;8.624;2023-11-19T12:13:53;23.17;;;6.87;;
9997;SDS011;5038;53.064;8.624;2023-11-19T12:16:29;24.90;;;7.90;;
9997;SDS011;5038;53.064;8.624;2023-11-19T12:19:03;24.60;;;9.03;;
9997;SDS011;5038;53.064;8.624;2023-11-19T12:21:34;22.80;;;7.03;;
9997;SDS011;5038;53.064;8.624;2023-11-19T12:24:04;24.80;;;7.33;;
9997;SDS011;5038;53.064;8.624;2023-11-19T12:26:35;28.83;;;8.30;;
9997;SDS011;5038;53.064;8.624;2023-11-19T12:29:05;26.80;;;7.07;;
9997;SDS011;5038;53.064;8.624;2023-11-19T12:31:35;19.33;;;6.73;;
9997;SDS011;5038;53.064;8.624;2023-11-19T12:34:08;27.40;;;7.80;;
9997;SDS011;5038;53.064;8.624;2023-11-19T12:36:41;20.80;;;7.10;;
9997;SDS011;5038;53.064;8.624;2023-11-19T12:39:10;28.10;;;8.10;;
9997;SDS011;5038;53.064;8.624;2023-11-19T12:41:50;21.47;;;7.30;;
9997;SDS011;5038;53.064;8.624;2023-11-19T12:44:19;22.30;;;6.10;;
9997;SDS011;5038;53.064;8.624;2023-11-19T12:47:00;16.40;;;6.57;;
9997;SDS011;5038;53.064;8.624;2023-11-19T12:49:33;15.20;;;6.73;;
9997;SDS011;5038;53.064;8.624;2023-11-19T12:52:10;24.10;;;6.87;;
9997;SDS011;5038;53.064;8.624;2023-11-19T12:54:39;10.93;;;4.20;;
9997;SDS011;5038;53.064;8.624;2023-11-19T12:57:08;8.27;;;4.10;;
9997;SDS011;5038;53.064;8.624;2023-11-19T12:59:36;7.37;;;2.83;;
9997;SDS011;5038;53.064;8.624;2023-11-19T13:02:05;8.80;;;3.77;;
9997;SDS011;5038;53.064;8.624;2023-11-19T13:04:34;7.23;;;4.10;;
9997;SDS011;5038;53.064;8.624;2023-11-19T13:07:04;6.40;;;2.20;;
9997;SDS011;5038;53.064;8.624;2023-11-19T13:09:33;4.60;;;1.90;;
9997;SDS011;5038;53.064;8.624;2023-11-19T13:12:11;3.37;;;1.33;;
9997;SDS011;5038;53.064;8.624;2023-11-19T13:14:42;5.90;;;1.70;;
9997;SDS011;5038;53.064;8.624;2023-11-19T13:17:15;5.93;;;1.80;;
9997;SDS011;5038;53.064;8.624;2023-11-19T13:19:46;5.90;;;1.80;;
9997;SDS011;5038;53.064;8.624;2023-11-19T13:22:16;7.57;;;1.97;;
9997;SDS011;5038;53.064;8.624;2023-11-19T13:24:45;4.20;;;2.23;;
9997;SDS011;5038;53.064;8.624;2023-11-19T13:27:13;5.97;;;2.40;;
9997;SDS011;5038;53.064;8.624;2023-11-19T13:29:41;6.80;;;2.30;;
9997;SDS011;5038;53.064;8.624;2023-11-19T13:32:10;4.80;;;2.33;;
9997;SDS011;5038;53.064;8.624;2023-11-19T13:34:38;5.67;;;2.37;;
9997;SDS011;5038;53.064;8.624;2023-11-19T13:37:06;6.70;;;2.80;;
9997;SDS011;5038;53.064;8.624;2023-11-19T13:39:36;8.83;;;3.30;;
9997;SDS011;5038;53.064;8.624;2023-11-19T13:42:09;10.50;;;4.13;;
9997;SDS011;5038;53.064;8.624;2023-11-19T13:44:39;11.50;;;4.40;;
9997;SDS011;5038;53.064;8.624;2023-11-19T13:47:09;14.67;;;5.93;;
9997;SDS011;5038;53.064;8.624;2023-11-19T13:49:37;14.47;;;6.27;;
9997;SDS011;5038;53.064;8.624;2023-11-19T13:52:05;13.00;;;5.23;;
9997;SDS011;5038;53.064;8.624;2023-11-19T13:54:37;13.27;;;4.83;;
9997;SDS011;5038;53.064;8.624;2023-11-19T13:57:05;18.80;;;6.77;;
9997;SDS011;5038;53.064;8.624;2023-11-19T13:59:34;14.73;;;7.40;;
9997;SDS011;5038;53.064;8.624;2023-11-19T14:02:08;25.03;;;9.07;;
9997;SDS011;5038;53.064;8.624;2023-11-19T14:04:36;18.73;;;7.83;;
9997;SDS011;5038;53.064;8.624;2023-11-19T14:07:04;19.10;;;7.93;;
9997;SDS011;5038;53.064;8.624;2023-11-19T14:09:32;20.20;;;8.60;;
9997;SDS011;5038;53.064;8.624;2023-11-19T14:12:02;18.43;;;8.80;;
9997;SDS011;5038;53.064;8.624;2023-11-19T14:14:31;17.77;;;8.70;;
9997;SDS011;5038;53.064;8.624;2023-11-19T14:16:59;17.83;;;8.03;;
9997;SDS011;5038;53.064;8.624;2023-11-19T14:19:32;19.27;;;8.90;;
9997;SDS011;5038;53.064;8.624;2023-11-19T14:22:00;27.97;;;8.70;;
9997;SDS011;5038;53.064;8.624;2023-11-19T14:24:29;18.33;;;8.00;;
9997;SDS011;5038;53.064;8.624;2023-11-19T14:26:57;22.53;;;7.20;;
9997;SDS011;5038;53.064;8.624;2023-11-19T14:29:27;16.27;;;5.90;;
9997;SDS011;5038;53.064;8.624;2023-11-19T14:31:56;15.40;;;5.77;;
9997;SDS011;5038;53.064;8.624;2023-11-19T14:34:25;19.20;;;5.77;;
9997;SDS011;5038;53.064;8.624;2023-11-19T14:36:54;17.47;;;5.70;;
9997;SDS011;5038;53.064;8.624;2023-11-19T14:39:22;19.37;;;6.30;;
9997;SDS011;5038;53.064;8.624;2023-11-19T14:41:50;14.27;;;5.07;;
9997;SDS011;5038;53.064;8.624;2023-11-19T14:44:20;11.57;;;4.83;;
9997;SDS011;5038;53.064;8.624;2023-11-19T14:46:49;13.40;;;4.50;;
9997;SDS011;5038;53.064;8.624;2023-11-19T14:49:17;17.87;;;4.93;;
9997;SDS011;5038;53.064;8.624;2023-11-19T14:51:46;11.93;;;4.90;;
9997;SDS011;5038;53.064;8.624;2023-11-19T14:54:14;15.43;;;5.50;;
9997;SDS011;5038;53.064;8.624;2023-11-19T14:56:43;11.60;;;5.20;;
9997;SDS011;5038;53.064;8.624;2023-11-19T14:59:11;13.00;;;5.40;;
9997;SDS011;5038;53.064;8.624;2023-11-19T15:01:39;14.57;;;5.70;;
9997;SDS011;5038;53.064;8.624;2023-11-19T15:04:09;21.30;;;8.70;;
9997;SDS011;5038;53.064;8.624;2023-11-19T15:06:38;15.50;;;5.23;;
9997;SDS011;5038;53.064;8.624;2023-11-19T15:09:06;17.23;;;5.60;;
9997;SDS011;5038;53.064;8.624;2023-11-19T15:11:36;15.57;;;4.07;;
9997;SDS011;5038;53.064;8.624;2023-11-19T15:14:04;16.33;;;5.60;;
9997;SDS011;5038;53.064;8.624;2023-11-19T15:16:32;14.70;;;5.73;;
9997;SDS011;5038;53.064;8.624;2023-11-19T15:19:01;16.30;;;6.60;;
9997;SDS011;5038;53.064;8.624;2023-11-19T15:21:32;16.57;;;6.40;;